High Prairie, Canada
Current Conditions -  °F | °C
As of 7:00 AM on Saturday 20 Dec 2014 (Local Time) from CYPE Reporting Station
Few Clouds Few Clouds  
Wind Chill:   Ceiling: Unl
Heat Index: 12°   Visibility: 15mi
Dew Point: 10°   Wind: 7mph
Humidity: 92%   Direction: 250°WSW
Pressure: 29.58"   Gusts: NA
Location:  55.43°N, 116.48°W
Report Text: CYPE 201400Z 25006KT 15SM FEW250 M11/M12 A2958 RMK CI2 SLP058
Loading
Personal Weather Stations






























Interactive Weather Map New forecast layout! Learn more

10-Day Weather Forecast

Advertisements
Track Severe Weather on mobile